^^
Station Historical Data
Daily Summary for May 19, 2017 Units:  Both    English   Metric
« Previous Day
Next Day »
Daily Weekly Monthly Yearly Custom
  High: Low: Average:
Temperature: 42.9 °F /  6.1 °C 34.2 °F /  1.2 °C 38.6 °F /  3.7 °C
Dew Point: 35.7 °F /  2.1 °C 31.9 °F /  -0.1 °C 33.3 °F /  0.7 °C
Humidity: 92% 69% 82%
Wind Speed: 20.7mph /  33.3km/h - 7.1mph /  11.4km/h
Wind Gust: 20.7mph /  33.3km/h - -
Wind- - WSW
Pressure: 30.13 in /  1020.2 hPa 30.03 in /  1016.8 hPa -
Precipitation: 1.22 in /  30.99 mm    
Historical Graphs
 
 
Tabular Data for May 19, 2017
Time Temperature Dew Point Pressure Wind Wind Speed Wind Gust Humidity Rainfall Rate (Hourly) solar Conditions
00:00 35.0 °F /  1.7 °C 32.6 °F /  0.3 °C 30.07in /  1018.2hPa NW 5.8mph /  9.3km/h 5.8mph /  9.3km/h 91% 0.05in /  1.27mm WeatherDisplay:10.37 W/m2 RA
00:05 35.1 °F /  1.7 °C 32.7 °F /  0.4 °C 30.08in /  1018.5hPa NNE 5.8mph /  9.3km/h 5.8mph /  9.3km/h 91% 0.05in /  1.27mm WeatherDisplay:10.37 W/m2 RA
00:10 35.1 °F /  1.7 °C 32.7 °F /  0.4 °C 30.08in /  1018.5hPa NNW 5.8mph /  9.3km/h 5.8mph /  9.3km/h 91% 0.04in /  1.02mm WeatherDisplay:10.37 W/m2
00:15 35.2 °F /  1.8 °C 32.8 °F /  0.4 °C 30.08in /  1018.5hPa WSW 5.8mph /  9.3km/h 5.8mph /  9.3km/h 91% 0.05in /  1.27mm WeatherDisplay:10.37 W/m2 RA
00:20 35.2 °F /  1.8 °C 32.8 °F /  0.4 °C 30.08in /  1018.5hPa NNE 6.9mph /  11.1km/h 6.9mph /  11.1km/h 91% 0.04in /  1.02mm WeatherDisplay:10.37 W/m2 RA
00:25 35.2 °F /  1.8 °C 32.8 °F /  0.4 °C 30.08in /  1018.5hPa NNW 3.5mph /  5.6km/h 3.5mph /  5.6km/h 91% 0.04in /  1.02mm WeatherDisplay:10.37 W/m2 CLR
00:30 35.2 °F /  1.8 °C 32.8 °F /  0.4 °C 30.08in /  1018.5hPa NNW 4.6mph /  7.4km/h 4.6mph /  7.4km/h 91% 0.05in /  1.27mm WeatherDisplay:10.37 W/m2 RA
00:35 35.1 °F /  1.7 °C 32.7 °F /  0.4 °C 30.08in /  1018.5hPa NNW 5.8mph /  9.3km/h 5.8mph /  9.3km/h 91% 0.04in /  1.02mm WeatherDisplay:10.37 W/m2 RA
00:40 35.1 °F /  1.7 °C 32.7 °F /  0.4 °C 30.08in /  1018.5hPa NNW 4.6mph /  7.4km/h 4.6mph /  7.4km/h 91% 0.05in /  1.27mm WeatherDisplay:10.37 W/m2 RA
00:45 35.1 °F /  1.7 °C 32.7 °F /  0.4 °C 30.07in /  1018.2hPa WNW 5.8mph /  9.3km/h 5.8mph /  9.3km/h 91% 0.05in /  1.27mm WeatherDisplay:10.37 W/m2 RA
00:50 35.1 °F /  1.7 °C 32.7 °F /  0.4 °C 30.07in /  1018.2hPa NNE 5.8mph /  9.3km/h 5.8mph /  9.3km/h 91% 0.05in /  1.27mm WeatherDisplay:10.37 W/m2 RA
00:55 35.0 °F /  1.7 °C 32.6 °F /  0.3 °C 30.07in /  1018.2hPa North 7.0mph /  11.3km/h 7.0mph /  11.3km/h 91% 0.06in /  1.52mm WeatherDisplay:10.37 W/m2 RA
01:00 35.0 °F /  1.7 °C 32.6 °F /  0.3 °C 30.07in /  1018.2hPa North 9.2mph /  14.8km/h 9.2mph /  14.8km/h 91% 0.05in /  1.27mm WeatherDisplay:10.37 W/m2 RA
01:05 34.9 °F /  1.6 °C 32.5 °F /  0.3 °C 30.08in /  1018.5hPa NNE 5.8mph /  9.3km/h 5.8mph /  9.3km/h 91% 0.06in /  1.52mm WeatherDisplay:10.37 W/m2 RA
01:10 34.9 °F /  1.6 °C 32.5 °F /  0.3 °C 30.08in /  1018.5hPa West 6.9mph /  11.1km/h 6.9mph /  11.1km/h 91% 0.06in /  1.52mm WeatherDisplay:10.37 W/m2 RA
01:15 35.0 °F /  1.7 °C 32.9 °F /  0.5 °C 30.08in /  1018.5hPa North 5.8mph /  9.3km/h 5.8mph /  9.3km/h 92% 0.06in /  1.52mm WeatherDisplay:10.37 W/m2 RA
01:20 35.0 °F /  1.7 °C 32.9 °F /  0.5 °C 30.08in /  1018.5hPa NNW 5.8mph /  9.3km/h 5.8mph /  9.3km/h 92% 0.06in /  1.52mm WeatherDisplay:10.37 W/m2 RA
01:25 35.1 °F /  1.7 °C 33.0 °F /  0.6 °C 30.07in /  1018.2hPa North 5.8mph /  9.3km/h 5.8mph /  9.3km/h 92% 0.05in /  1.27mm WeatherDisplay:10.37 W/m2 CLR
01:30 35.1 °F /  1.7 °C 32.7 °F /  0.4 °C 30.07in /  1018.2hPa NNE 6.9mph /  11.1km/h 6.9mph /  11.1km/h 91% 0.06in /  1.52mm WeatherDisplay:10.37 W/m2 RA
01:35 35.0 °F /  1.7 °C 32.6 °F /  0.3 °C 30.07in /  1018.2hPa SW 6.9mph /  11.1km/h 6.9mph /  11.1km/h 91% 0.06in /  1.52mm WeatherDisplay:10.37 W/m2 RA
01:40 35.0 °F /  1.7 °C 32.6 °F /  0.3 °C 30.07in /  1018.2hPa North 6.0mph /  9.7km/h 6.0mph /  9.7km/h 91% 0.06in /  1.52mm WeatherDisplay:10.37 W/m2 RA
01:45 35.0 °F /  1.7 °C 32.6 °F /  0.3 °C 30.07in /  1018.2hPa NNW 4.6mph /  7.4km/h 4.6mph /  7.4km/h 91% 0.06in /  1.52mm WeatherDisplay:10.37 W/m2 RA
01:50 35.0 °F /  1.7 °C 32.9 °F /  0.5 °C 30.07in /  1018.2hPa North 11.5mph /  18.5km/h 11.5mph /  18.5km/h 92% 0.05in /  1.27mm WeatherDisplay:10.37 W/m2 CLR
01:55 35.0 °F /  1.7 °C 32.6 °F /  0.3 °C 30.07in /  1018.2hPa NNW 6.9mph /  11.1km/h 6.9mph /  11.1km/h 91% 0.05in /  1.27mm WeatherDisplay:10.37 W/m2 RA
02:00 34.9 °F /  1.6 °C 32.5 °F /  0.3 °C 30.07in /  1018.2hPa NNW 9.2mph /  14.8km/h 9.2mph /  14.8km/h 91% 0.06in /  1.52mm WeatherDisplay:10.37 W/m2 RA
02:05 34.9 °F /  1.6 °C 32.5 °F /  0.3 °C 30.06in /  1017.8hPa North 5.8mph /  9.3km/h 5.8mph /  9.3km/h 91% 0.05in /  1.27mm WeatherDisplay:10.37 W/m2 RA
02:10 34.8 °F /  1.6 °C 32.4 °F /  0.2 °C 30.06in /  1017.8hPa North 9.2mph /  14.8km/h 9.2mph /  14.8km/h 91% 0.05in /  1.27mm WeatherDisplay:10.37 W/m2
02:16 34.7 °F /  1.5 °C 32.3 °F /  0.2 °C 30.06in /  1017.8hPa NNE 4.6mph /  7.4km/h 4.6mph /  7.4km/h 91% 0.05in /  1.27mm WeatherDisplay:10.37 W/m2 RA
02:21 34.6 °F /  1.4 °C 32.2 °F /  0.1 °C 30.05in /  1017.5hPa North 5.8mph /  9.3km/h 5.8mph /  9.3km/h 91% 0.05in /  1.27mm WeatherDisplay:10.37 W/m2 RA
02:26 34.5 °F /  1.4 °C 32.1 °F /  0.1 °C 30.05in /  1017.5hPa NNW 3.5mph /  5.6km/h 3.5mph /  5.6km/h 91% 0.06in /  1.52mm WeatherDisplay:10.37 W/m2 RA
02:36 34.7 °F /  1.5 °C 32.6 °F /  0.3 °C 30.05in /  1017.5hPa NNW 8.1mph /  13km/h 8.1mph /  13km/h 92% 0.06in /  1.52mm WeatherDisplay:10.37 W/m2 RA
02:41 34.7 °F /  1.5 °C 32.6 °F /  0.3 °C 30.05in /  1017.5hPa NNE 5.8mph /  9.3km/h 5.8mph /  9.3km/h 92% 0.05in /  1.27mm WeatherDisplay:10.37 W/m2 RA
02:46 34.8 °F /  1.6 °C 32.7 °F /  0.4 °C 30.04in /  1017.2hPa NNW 6.0mph /  9.7km/h 6.0mph /  9.7km/h 92% 0.05in /  1.27mm WeatherDisplay:10.37 W/m2
02:51 34.8 °F /  1.6 °C 32.7 °F /  0.4 °C 30.04in /  1017.2hPa NNW 11.5mph /  18.5km/h 11.5mph /  18.5km/h 92% 0.06in /  1.52mm WeatherDisplay:10.37 W/m2 RA
02:56 34.8 °F /  1.6 °C 32.7 °F /  0.4 °C 30.05in /  1017.5hPa NNE 10.4mph /  16.7km/h 10.4mph /  16.7km/h 92% 0.05in /  1.27mm WeatherDisplay:10.37 W/m2 RA
03:01 34.9 °F /  1.6 °C 32.8 °F /  0.4 °C 30.05in /  1017.5hPa North 5.8mph /  9.3km/h 5.8mph /  9.3km/h 92% 0.04in /  1.02mm WeatherDisplay:10.37 W/m2 CLR
03:06 34.9 °F /  1.6 °C 32.8 °F /  0.4 °C 30.04in /  1017.2hPa WNW 4.6mph /  7.4km/h 4.6mph /  7.4km/h 92% 0.05in /  1.27mm WeatherDisplay:10.37 W/m2 RA
03:11 35.0 °F /  1.7 °C 32.9 °F /  0.5 °C 30.04in /  1017.2hPa NNE 3.5mph /  5.6km/h 3.5mph /  5.6km/h 92% 0.05in /  1.27mm WeatherDisplay:10.37 W/m2 RA
03:16 35.1 °F /  1.7 °C 33.0 °F /  0.6 °C 30.04in /  1017.2hPa North 3.5mph /  5.6km/h 3.5mph /  5.6km/h 92% 0.04in /  1.02mm WeatherDisplay:10.37 W/m2 CLR
03:21 35.1 °F /  1.7 °C 33.0 °F /  0.6 °C 30.04in /  1017.2hPa NNW 9.2mph /  14.8km/h 9.2mph /  14.8km/h 92% 0.05in /  1.27mm WeatherDisplay:10.37 W/m2 RA
03:26 35.2 °F /  1.8 °C 33.1 °F /  0.6 °C 30.04in /  1017.2hPa WNW 4.0mph /  6.4km/h 4.0mph /  6.4km/h 92% 0.04in /  1.02mm WeatherDisplay:10.37 W/m2 RA
03:31 35.1 °F /  1.7 °C 32.7 °F /  0.4 °C 30.04in /  1017.2hPa NNW 6.9mph /  11.1km/h 6.9mph /  11.1km/h 91% 0.05in /  1.27mm WeatherDisplay:10.37 W/m2 RA
03:36 35.1 °F /  1.7 °C 32.7 °F /  0.4 °C 30.03in /  1016.8hPa North 5.8mph /  9.3km/h 5.8mph /  9.3km/h 91% 0.05in /  1.27mm WeatherDisplay:10.37 W/m2 RA
03:41 35.0 °F /  1.7 °C 32.6 °F /  0.3 °C 30.04in /  1017.2hPa NNW 3.5mph /  5.6km/h 3.5mph /  5.6km/h 91% 0.05in /  1.27mm WeatherDisplay:10.37 W/m2 RA
03:46 34.9 °F /  1.6 °C 32.5 °F /  0.3 °C 30.03in /  1016.8hPa WNW 7.0mph /  11.3km/h 7.0mph /  11.3km/h 91% 0.06in /  1.52mm WeatherDisplay:10.37 W/m2 RA
03:51 34.8 °F /  1.6 °C 32.4 °F /  0.2 °C 30.04in /  1017.2hPa North 6.9mph /  11.1km/h 6.9mph /  11.1km/h 91% 0.05in /  1.27mm WeatherDisplay:10.37 W/m2 RA
03:56 34.6 °F /  1.4 °C 32.2 °F /  0.1 °C 30.04in /  1017.2hPa NNW 5.8mph /  9.3km/h 5.8mph /  9.3km/h 91% 0.06in /  1.52mm WeatherDisplay:10.37 W/m2 RA
04:01 34.6 °F /  1.4 °C 32.2 °F /  0.1 °C 30.04in /  1017.2hPa North 6.9mph /  11.1km/h 6.9mph /  11.1km/h 91% 0.06in /  1.52mm WeatherDisplay:10.37 W/m2 RA
04:06 34.5 °F /  1.4 °C 32.1 °F /  0.1 °C 30.06in /  1017.8hPa NNW 5.0mph /  8km/h 5.0mph /  8km/h 91% 0.05in /  1.27mm WeatherDisplay:10.37 W/m2
04:11 34.4 °F /  1.3 °C 32.0 °F /  0 °C 30.06in /  1017.8hPa NNE 6.0mph /  9.7km/h 6.0mph /  9.7km/h 91% 0.06in /  1.52mm WeatherDisplay:10.37 W/m2 RA
04:16 34.4 °F /  1.3 °C 32.3 °F /  0.2 °C 30.06in /  1017.8hPa NNE 1.2mph /  1.9km/h   92% 0.06in /  1.52mm WeatherDisplay:10.37 W/m2 RA
04:21 34.4 °F /  1.3 °C 32.3 °F /  0.2 °C 30.06in /  1017.8hPa North 6.9mph /  11.1km/h 6.9mph /  11.1km/h 92% 0.06in /  1.52mm WeatherDisplay:10.37 W/m2 RA
04:26 34.4 °F /  1.3 °C 32.3 °F /  0.2 °C 30.06in /  1017.8hPa NNW 4.6mph /  7.4km/h 4.6mph /  7.4km/h 92% 0.06in /  1.52mm WeatherDisplay:10.37 W/m2 RA
04:31 34.4 °F /  1.3 °C 32.3 °F /  0.2 °C 30.06in /  1017.8hPa North 5.0mph /  8km/h 5.0mph /  8km/h 92% 0.05in /  1.27mm WeatherDisplay:10.37 W/m2 CLR
04:36 34.4 °F /  1.3 °C 32.3 °F /  0.2 °C 30.06in /  1017.8hPa North 3.5mph /  5.6km/h 3.5mph /  5.6km/h 92% 0.05in /  1.27mm WeatherDisplay:10.37 W/m2 RA
04:41 34.4 °F /  1.3 °C 32.3 °F /  0.2 °C 30.06in /  1017.8hPa North 3.5mph /  5.6km/h 3.5mph /  5.6km/h 92% 0.05in /  1.27mm WeatherDisplay:10.37 W/m2 RA
04:46 34.4 °F /  1.3 °C 32.3 °F /  0.2 °C 30.06in /  1017.8hPa North 3.5mph /  5.6km/h 3.5mph /  5.6km/h 92% 0.04in /  1.02mm WeatherDisplay:10.37 W/m2
04:51 34.6 °F /  1.4 °C 32.5 °F /  0.3 °C 30.06in /  1017.8hPa West 11.5mph /  18.5km/h 11.5mph /  18.5km/h 92% 0.05in /  1.27mm WeatherDisplay:10.37 W/m2 RA
04:56 34.7 °F /  1.5 °C 32.6 °F /  0.3 °C 30.06in /  1017.8hPa North 4.6mph /  7.4km/h 4.6mph /  7.4km/h 92% 0.04in /  1.02mm WeatherDisplay:10.37 W/m2 RA
05:01 34.7 °F /  1.5 °C 32.6 °F /  0.3 °C 30.06in /  1017.8hPa West 4.0mph /  6.4km/h 4.0mph /  6.4km/h 92% 0.04in /  1.02mm WeatherDisplay:10.37 W/m2
05:06 34.7 °F /  1.5 °C 32.6 °F /  0.3 °C 30.06in /  1017.8hPa West 1.2mph /  1.9km/h 1.2mph /  1.9km/h 92% 0.04in /  1.02mm WeatherDisplay:10.37 W/m2 CLR
05:11 34.5 °F /  1.4 °C 32.4 °F /  0.2 °C 30.06in /  1017.8hPa North 3.5mph /  5.6km/h   92% 0.04in /  1.02mm WeatherDisplay:10.37 W/m2 RA
05:16 34.4 °F /  1.3 °C 32.0 °F /  0 °C 30.07in /  1018.2hPa WNW 4.0mph /  6.4km/h 4.0mph /  6.4km/h 91% 0.04in /  1.02mm WeatherDisplay:10.37 W/m2 RA
05:21 34.4 °F /  1.3 °C 32.3 °F /  0.2 °C 30.07in /  1018.2hPa NW 2.3mph /  3.7km/h 2.3mph /  3.7km/h 92% 0.03in /  0.76mm WeatherDisplay:10.37 W/m2 CLR
05:26 34.3 °F /  1.3 °C 31.9 °F /  -0.1 °C 30.07in /  1018.2hPa NNE 3.5mph /  5.6km/h 3.5mph /  5.6km/h 91% 0.03in /  0.76mm WeatherDisplay:10.37 W/m2 CLR
05:31 34.3 °F /  1.3 °C 32.2 °F /  0.1 °C 30.07in /  1018.2hPa NNW 4.6mph /  7.4km/h   92% 0.03in /  0.76mm WeatherDisplay:10.37 W/m2 CLR
05:36 34.2 °F /  1.2 °C 32.1 °F /  0.1 °C 30.07in /  1018.2hPa WNW 3.5mph /  5.6km/h 3.5mph /  5.6km/h 92% 0.02in /  0.51mm WeatherDisplay:10.37 W/m2 CLR
05:41 34.2 °F /  1.2 °C 32.1 °F /  0.1 °C 30.07in /  1018.2hPa NNW 3.5mph /  5.6km/h 3.5mph /  5.6km/h 92% 0.03in /  0.76mm WeatherDisplay:10.37 W/m2 RA
05:46 34.3 °F /  1.3 °C 32.2 °F /  0.1 °C 30.07in /  1018.2hPa Calm     92% 0.03in /  0.76mm WeatherDisplay:10.37 W/m2 RA
05:51 34.3 °F /  1.3 °C 32.2 °F /  0.1 °C 30.07in /  1018.2hPa Calm     92% 0.02in /  0.51mm WeatherDisplay:10.37 W/m2
05:56 34.3 °F /  1.3 °C 32.2 °F /  0.1 °C 30.07in /  1018.2hPa NW 3.5mph /  5.6km/h 3.5mph /  5.6km/h 92% 0.02in /  0.51mm WeatherDisplay:10.37 W/m2 CLR
06:01 34.3 °F /  1.3 °C 32.2 °F /  0.1 °C 30.08in /  1018.5hPa NW 3.5mph /  5.6km/h 3.5mph /  5.6km/h 92% 0.03in /  0.76mm WeatherDisplay:10.37 W/m2 RA
06:06 34.4 °F /  1.3 °C 32.3 °F /  0.2 °C 30.08in /  1018.5hPa NW 2.3mph /  3.7km/h 2.3mph /  3.7km/h 92% 0.03in /  0.76mm WeatherDisplay:10.37 W/m2 RA
06:11 34.4 °F /  1.3 °C 32.3 °F /  0.2 °C 30.08in /  1018.5hPa NW 2.0mph /  3.2km/h 2.0mph /  3.2km/h 92% 0.02in /  0.51mm WeatherDisplay:10.37 W/m2
06:16 34.4 °F /  1.3 °C 32.3 °F /  0.2 °C 30.08in /  1018.5hPa NNW 2.3mph /  3.7km/h 2.3mph /  3.7km/h 92% 0.02in /  0.51mm WeatherDisplay:10.37 W/m2 CLR
06:21 34.3 °F /  1.3 °C 32.2 °F /  0.1 °C 30.08in /  1018.5hPa WNW 3.5mph /  5.6km/h 3.5mph /  5.6km/h 92% 0.02in /  0.51mm WeatherDisplay:10.37 W/m2 CLR
06:26 34.3 °F /  1.3 °C 32.2 °F /  0.1 °C 30.08in /  1018.5hPa NW 1.2mph /  1.9km/h 1.2mph /  1.9km/h 92% 0.02in /  0.51mm WeatherDisplay:10.37 W/m2 CLR
06:31 34.2 °F /  1.2 °C 32.1 °F /  0.1 °C 30.09in /  1018.8hPa NW 3.5mph /  5.6km/h 3.5mph /  5.6km/h 92% 0.02in /  0.51mm WeatherDisplay:10.37 W/m2 CLR
06:36 34.3 °F /  1.3 °C 32.2 °F /  0.1 °C 30.09in /  1018.8hPa North 5.8mph /  9.3km/h 5.8mph /  9.3km/h 92% 0.03in /  0.76mm WeatherDisplay:10.37 W/m2 RA
06:41 34.4 °F /  1.3 °C 32.3 °F /  0.2 °C 30.09in /  1018.8hPa WNW 3.0mph /  4.8km/h 3.0mph /  4.8km/h 92% 0.02in /  0.51mm WeatherDisplay:10.37 W/m2 RA
06:46 34.4 °F /  1.3 °C 32.3 °F /  0.2 °C 30.09in /  1018.8hPa Calm   0.5mph /  0.8km/h 92% 0.02in /  0.51mm WeatherDisplay:10.37 W/m2
06:51 34.4 °F /  1.3 °C 32.3 °F /  0.2 °C 30.09in /  1018.8hPa North 4.0mph /  6.4km/h 4.0mph /  6.4km/h 92% 0.03in /  0.76mm WeatherDisplay:10.37 W/m2 RA
06:56 34.5 °F /  1.4 °C 32.4 °F /  0.2 °C 30.09in /  1018.8hPa WNW 3.5mph /  5.6km/h 3.5mph /  5.6km/h 92% 0.03in /  0.76mm WeatherDisplay:10.37 W/m2 RA
07:01 34.7 °F /  1.5 °C 32.6 °F /  0.3 °C 30.08in /  1018.5hPa NW 2.3mph /  3.7km/h 2.3mph /  3.7km/h 92% 0.03in /  0.76mm WeatherDisplay:10.37 W/m2 RA
07:07 34.9 °F /  1.6 °C 32.8 °F /  0.4 °C 30.08in /  1018.5hPa NW 3.5mph /  5.6km/h 3.5mph /  5.6km/h 92% 0.04in /  1.02mm WeatherDisplay:10.37 W/m2 RA
07:12 35.0 °F /  1.7 °C 32.9 °F /  0.5 °C 30.09in /  1018.8hPa WSW 1.0mph /  1.6km/h   92% 0.04in /  1.02mm WeatherDisplay:10.37 W/m2 RA
07:17 35.1 °F /  1.7 °C 33.0 °F /  0.6 °C 30.09in /  1018.8hPa Calm     92% 0.05in /  1.27mm WeatherDisplay:10.37 W/m2 RA
07:22 35.2 °F /  1.8 °C 33.1 °F /  0.6 °C 30.09in /  1018.8hPa West 4.6mph /  7.4km/h 4.6mph /  7.4km/h 92% 0.06in /  1.52mm WeatherDisplay:10.37 W/m2 RA
07:27 35.1 °F /  1.7 °C 33.0 °F /  0.6 °C 30.09in /  1018.8hPa NW 2.3mph /  3.7km/h 2.3mph /  3.7km/h 92% 0.06in /  1.52mm WeatherDisplay:10.37 W/m2 RA
07:32 35.2 °F /  1.8 °C 33.1 °F /  0.6 °C 30.09in /  1018.8hPa WNW 2.3mph /  3.7km/h 2.3mph /  3.7km/h 92% 0.07in /  1.78mm WeatherDisplay:10.37 W/m2 RA
07:37 35.2 °F /  1.8 °C 33.1 °F /  0.6 °C 30.09in /  1018.8hPa NNE 3.5mph /  5.6km/h 3.5mph /  5.6km/h 92% 0.07in /  1.78mm WeatherDisplay:10.37 W/m2 RA
07:42 35.2 °F /  1.8 °C 33.1 °F /  0.6 °C 30.10in /  1019.2hPa Calm     92% 0.07in /  1.78mm WeatherDisplay:10.37 W/m2 RA
07:46 35.2 °F /  1.8 °C 33.1 °F /  0.6 °C 30.10in /  1019.2hPa WNW 3.5mph /  5.6km/h 3.5mph /  5.6km/h 92% 0.07in /  1.78mm WeatherDisplay:10.37 W/m2 CLR
07:52 35.2 °F /  1.8 °C 33.1 °F /  0.6 °C 30.10in /  1019.2hPa Calm     92% 0.07in /  1.78mm WeatherDisplay:10.37 W/m2 RA
07:57 35.2 °F /  1.8 °C 33.1 °F /  0.6 °C 30.11in /  1019.5hPa NNW 1.2mph /  1.9km/h   92% 0.08in /  2.03mm WeatherDisplay:10.37 W/m2 RA
08:02 35.2 °F /  1.8 °C 33.1 °F /  0.6 °C 30.12in /  1019.9hPa West 1.0mph /  1.6km/h   92% 0.07in /  1.78mm WeatherDisplay:10.37 W/m2 RA
08:07 35.3 °F /  1.8 °C 33.2 °F /  0.7 °C 30.12in /  1019.9hPa NW 1.2mph /  1.9km/h 1.2mph /  1.9km/h 92% 0.06in /  1.52mm WeatherDisplay:10.37 W/m2
08:12 35.4 °F /  1.9 °C 33.3 °F /  0.7 °C 30.12in /  1019.9hPa WSW 2.3mph /  3.7km/h 2.3mph /  3.7km/h 92% 0.07in /  1.78mm WeatherDisplay:10.37 W/m2 RA
08:17 35.5 °F /  1.9 °C 33.4 °F /  0.8 °C 30.11in /  1019.5hPa West 2.3mph /  3.7km/h 2.3mph /  3.7km/h 92% 0.07in /  1.78mm WeatherDisplay:10.37 W/m2 RA
08:22 35.6 °F /  2 °C 33.5 °F /  0.8 °C 30.11in /  1019.5hPa WNW 1.2mph /  1.9km/h   92% 0.06in /  1.52mm WeatherDisplay:10.37 W/m2 RA
08:27 35.6 °F /  2 °C 33.5 °F /  0.8 °C 30.11in /  1019.5hPa WNW 2.3mph /  3.7km/h 2.3mph /  3.7km/h 92% 0.07in /  1.78mm WeatherDisplay:10.37 W/m2 RA
08:32 35.7 °F /  2.1 °C 33.6 °F /  0.9 °C 30.11in /  1019.5hPa NW 3.5mph /  5.6km/h 3.5mph /  5.6km/h 92% 0.07in /  1.78mm WeatherDisplay:10.37 W/m2 RA
08:37 35.8 °F /  2.1 °C 33.7 °F /  0.9 °C 30.11in /  1019.5hPa West 2.3mph /  3.7km/h 2.3mph /  3.7km/h 92% 0.07in /  1.78mm WeatherDisplay:10.37 W/m2 RA
08:42 36.0 °F /  2.2 °C 33.9 °F /  1.1 °C 30.12in /  1019.9hPa Calm     92% 0.08in /  2.03mm WeatherDisplay:10.37 W/m2 RA
08:47 36.1 °F /  2.3 °C 34.0 °F /  1.1 °C 30.12in /  1019.9hPa WNW 4.6mph /  7.4km/h 4.6mph /  7.4km/h 92% 0.08in /  2.03mm WeatherDisplay:10.37 W/m2 RA
08:52 36.2 °F /  2.3 °C 33.8 °F /  1 °C 30.12in /  1019.9hPa NNW 4.6mph /  7.4km/h 4.6mph /  7.4km/h 91% 0.08in /  2.03mm WeatherDisplay:10.37 W/m2 RA
08:57 36.2 °F /  2.3 °C 33.8 °F /  1 °C 30.12in /  1019.9hPa NW 5.8mph /  9.3km/h 5.8mph /  9.3km/h 91% 0.08in /  2.03mm WeatherDisplay:10.37 W/m2 RA
09:02 36.2 °F /  2.3 °C 33.8 °F /  1 °C 30.12in /  1019.9hPa NNW 6.9mph /  11.1km/h 6.9mph /  11.1km/h 91% 0.09in /  2.29mm WeatherDisplay:10.37 W/m2 RA
09:07 36.2 °F /  2.3 °C 33.8 °F /  1 °C 30.12in /  1019.9hPa NNW 6.9mph /  11.1km/h 6.9mph /  11.1km/h 91% 0.10in /  2.54mm WeatherDisplay:10.37 W/m2 RA
09:12 36.4 °F /  2.4 °C 34.0 °F /  1.1 °C 30.12in /  1019.9hPa NNW 3.5mph /  5.6km/h 3.5mph /  5.6km/h 91% 0.11in /  2.79mm WeatherDisplay:10.37 W/m2 RA
09:17 36.5 °F /  2.5 °C 33.8 °F /  1 °C 30.12in /  1019.9hPa NNW 5.0mph /  8km/h 5.0mph /  8km/h 90% 0.11in /  2.79mm WeatherDisplay:10.37 W/m2 RA
09:22 36.7 °F /  2.6 °C 34.0 °F /  1.1 °C 30.12in /  1019.9hPa NNW 5.8mph /  9.3km/h 5.8mph /  9.3km/h 90% 0.12in /  3.05mm WeatherDisplay:10.37 W/m2 RA
09:27 36.9 °F /  2.7 °C 34.2 °F /  1.2 °C 30.12in /  1019.9hPa North 7.0mph /  11.3km/h 7.0mph /  11.3km/h 90% 0.13in /  3.3mm WeatherDisplay:10.37 W/m2 RA
09:32 37.0 °F /  2.8 °C 34.3 °F /  1.3 °C 30.12in /  1019.9hPa WNW 8.1mph /  13km/h 8.1mph /  13km/h 90% 0.13in /  3.3mm WeatherDisplay:10.37 W/m2 RA
09:37 36.9 °F /  2.7 °C 34.0 °F /  1.1 °C 30.12in /  1019.9hPa NNE 6.0mph /  9.7km/h 6.0mph /  9.7km/h 89% 0.13in /  3.3mm WeatherDisplay:10.37 W/m2 RA
09:42 36.9 °F /  2.7 °C 34.2 °F /  1.2 °C 30.12in /  1019.9hPa NNW 5.8mph /  9.3km/h 5.8mph /  9.3km/h 90% 0.14in /  3.56mm WeatherDisplay:10.37 W/m2 RA
09:47 36.9 °F /  2.7 °C 34.0 °F /  1.1 °C 30.12in /  1019.9hPa NNE 9.2mph /  14.8km/h 9.2mph /  14.8km/h 89% 0.15in /  3.81mm WeatherDisplay:10.37 W/m2 RA
09:52 37.1 °F /  2.8 °C 34.4 °F /  1.3 °C 30.12in /  1019.9hPa NNW 5.8mph /  9.3km/h 5.8mph /  9.3km/h 90% 0.15in /  3.81mm WeatherDisplay:10.37 W/m2 RA
09:57 37.3 °F /  2.9 °C 34.4 °F /  1.3 °C 30.12in /  1019.9hPa North 6.9mph /  11.1km/h 6.9mph /  11.1km/h 89% 0.15in /  3.81mm WeatherDisplay:10.37 W/m2 RA
10:02 37.4 °F /  3 °C 34.5 °F /  1.4 °C 30.11in /  1019.5hPa NNE 6.9mph /  11.1km/h 6.9mph /  11.1km/h 89% 0.15in /  3.81mm WeatherDisplay:10.37 W/m2 RA
10:07 37.5 °F /  3.1 °C 34.6 °F /  1.4 °C 30.11in /  1019.5hPa North 11.5mph /  18.5km/h 11.5mph /  18.5km/h 89% 0.15in /  3.81mm WeatherDisplay:10.37 W/m2 RA
10:12 37.6 °F /  3.1 °C 34.4 °F /  1.3 °C 30.11in /  1019.5hPa North 9.2mph /  14.8km/h 9.2mph /  14.8km/h 88% 0.14in /  3.56mm WeatherDisplay:10.37 W/m2 RA
10:17 37.8 °F /  3.2 °C 34.6 °F /  1.4 °C 30.11in /  1019.5hPa North 10.4mph /  16.7km/h 10.4mph /  16.7km/h 88% 0.15in /  3.81mm WeatherDisplay:10.37 W/m2 RA
10:19 37.9 °F /  3.3 °C 34.7 °F /  1.5 °C 30.11in /  1019.5hPa North 9.2mph /  14.8km/h 9.2mph /  14.8km/h 88% 0.15in /  3.81mm WeatherDisplay:10.37 W/m2 RA
10:24 38.3 °F /  3.5 °C 35.1 °F /  1.7 °C 30.11in /  1019.5hPa NNW 10.4mph /  16.7km/h 10.4mph /  16.7km/h 88% 0.15in /  3.81mm WeatherDisplay:10.37 W/m2 RA
10:29 38.6 °F /  3.7 °C 35.4 °F /  1.9 °C 30.10in /  1019.2hPa NW 5.8mph /  9.3km/h 5.8mph /  9.3km/h 88% 0.15in /  3.81mm WeatherDisplay:10.37 W/m2 RA
10:30 38.6 °F /  3.7 °C 35.4 °F /  1.9 °C 30.10in /  1019.2hPa WNW 8.1mph /  13km/h 8.1mph /  13km/h 88% 0.15in /  3.81mm WeatherDisplay:10.37 W/m2 RA
10:35 38.8 °F /  3.8 °C 35.3 °F /  1.8 °C 30.10in /  1019.2hPa NNW 4.6mph /  7.4km/h 4.6mph /  7.4km/h 87% 0.14in /  3.56mm WeatherDisplay:10.37 W/m2 RA
10:40 38.9 °F /  3.8 °C 35.4 °F /  1.9 °C 30.10in /  1019.2hPa NNW 9.0mph /  14.5km/h 9.0mph /  14.5km/h 87% 0.15in /  3.81mm WeatherDisplay:10.37 W/m2 RA
10:45 39.2 °F /  4 °C 35.4 °F /  1.9 °C 30.10in /  1019.2hPa WNW 8.0mph /  12.9km/h 8.0mph /  12.9km/h 86% 0.16in /  4.06mm WeatherDisplay:10.37 W/m2 RA
10:50 39.4 °F /  4.1 °C 35.0 °F /  1.7 °C 30.09in /  1018.8hPa North 16.1mph /  25.9km/h 16.1mph /  25.9km/h 84% 0.16in /  4.06mm WeatherDisplay:10.37 W/m2 RA
10:55 39.5 °F /  4.2 °C 35.7 °F /  2.1 °C 30.09in /  1018.8hPa North 16.0mph /  25.7km/h 16.0mph /  25.7km/h 86% 0.17in /  4.32mm WeatherDisplay:10.37 W/m2 RA
11:00 39.6 °F /  4.2 °C 35.2 °F /  1.8 °C 30.09in /  1018.8hPa NW 10.4mph /  16.7km/h 10.4mph /  16.7km/h 84% 0.16in /  4.06mm WeatherDisplay:10.37 W/m2 RA
11:05 39.6 °F /  4.2 °C 35.5 °F /  1.9 °C 30.09in /  1018.8hPa NW 11.0mph /  17.7km/h 11.0mph /  17.7km/h 85% 0.17in /  4.32mm WeatherDisplay:10.37 W/m2 RA
11:10 39.8 °F /  4.3 °C 35.4 °F /  1.9 °C 30.09in /  1018.8hPa SE 9.2mph /  14.8km/h 9.2mph /  14.8km/h 84% 0.18in /  4.57mm WeatherDisplay:10.37 W/m2 RA
11:15 39.7 °F /  4.3 °C 35.0 °F /  1.7 °C 30.09in /  1018.8hPa NW 11.5mph /  18.5km/h 11.5mph /  18.5km/h 83% 0.19in /  4.83mm WeatherDisplay:10.37 W/m2 RA
11:20 39.6 °F /  4.2 °C 34.9 °F /  1.6 °C 30.09in /  1018.8hPa NNE 12.7mph /  20.4km/h 12.7mph /  20.4km/h 83% 0.19in /  4.83mm WeatherDisplay:10.37 W/m2 RA
11:25 39.6 °F /  4.2 °C 34.9 °F /  1.6 °C 30.09in /  1018.8hPa NNE 17.3mph /  27.8km/h 17.3mph /  27.8km/h 83% 0.19in /  4.83mm WeatherDisplay:10.37 W/m2 RA
11:30 39.7 °F /  4.3 °C 34.7 °F /  1.5 °C 30.09in /  1018.8hPa NNE 12.7mph /  20.4km/h 12.7mph /  20.4km/h 82% 0.20in /  5.08mm WeatherDisplay:10.37 W/m2 RA
11:35 39.9 °F /  4.4 °C 34.5 °F /  1.4 °C 30.09in /  1018.8hPa NNE 12.7mph /  20.4km/h 12.7mph /  20.4km/h 81% 0.20in /  5.08mm WeatherDisplay:10.37 W/m2 RA
11:40 39.8 °F /  4.3 °C 34.8 °F /  1.6 °C 30.09in /  1018.8hPa NNE 16.1mph /  25.9km/h 16.1mph /  25.9km/h 82% 0.20in /  5.08mm WeatherDisplay:10.37 W/m2 RA
11:45 40.1 °F /  4.5 °C 34.4 °F /  1.3 °C 30.08in /  1018.5hPa North 19.6mph /  31.5km/h 19.6mph /  31.5km/h 80% 0.19in /  4.83mm WeatherDisplay:10.37 W/m2 RA
11:50 40.0 °F /  4.4 °C 34.6 °F /  1.4 °C 30.09in /  1018.8hPa NNE 12.7mph /  20.4km/h 12.7mph /  20.4km/h 81% 0.20in /  5.08mm WeatherDisplay:10.37 W/m2 RA
11:55 40.3 °F /  4.6 °C 34.6 °F /  1.4 °C 30.08in /  1018.5hPa NNW 19.6mph /  31.5km/h 19.6mph /  31.5km/h 80% 0.19in /  4.83mm WeatherDisplay:10.37 W/m2 RA
12:00 40.5 °F /  4.7 °C 34.2 °F /  1.2 °C 30.06in /  1017.8hPa North 11.5mph /  18.5km/h 11.5mph /  18.5km/h 78% 0.20in /  5.08mm WeatherDisplay:10.37 W/m2 RA
12:05 40.7 °F /  4.8 °C 34.7 °F /  1.5 °C 30.06in /  1017.8hPa NW 15.0mph /  24.1km/h 15.0mph /  24.1km/h 79% 0.20in /  5.08mm WeatherDisplay:10.37 W/m2 RA
12:10 41.0 °F /  5 °C 35.0 °F /  1.7 °C 30.06in /  1017.8hPa NNE 7.0mph /  11.3km/h 7.0mph /  11.3km/h 79% 0.20in /  5.08mm WeatherDisplay:10.37 W/m2 RA
12:15 41.1 °F /  5.1 °C 35.1 °F /  1.7 °C 30.06in /  1017.8hPa North 16.1mph /  25.9km/h 16.1mph /  25.9km/h 79% 0.19in /  4.83mm WeatherDisplay:10.37 W/m2 RA
12:20 41.0 °F /  5 °C 34.3 °F /  1.3 °C 30.06in /  1017.8hPa NNE 20.7mph /  33.3km/h 20.7mph /  33.3km/h 77% 0.20in /  5.08mm WeatherDisplay:10.37 W/m2 RA
12:25 40.9 °F /  4.9 °C 33.9 °F /  1.1 °C 30.07in /  1018.2hPa NNW 15.0mph /  24.1km/h 15.0mph /  24.1km/h 76% 0.19in /  4.83mm WeatherDisplay:10.37 W/m2 RA
12:30 40.6 °F /  4.8 °C 34.0 °F /  1.1 °C 30.07in /  1018.2hPa NNE 11.5mph /  18.5km/h 11.5mph /  18.5km/h 77% 0.19in /  4.83mm WeatherDisplay:10.37 W/m2 RA
12:35 40.4 °F /  4.7 °C 33.8 °F /  1 °C 30.08in /  1018.5hPa North 12.7mph /  20.4km/h 12.7mph /  20.4km/h 77% 0.19in /  4.83mm WeatherDisplay:10.37 W/m2 RA
12:40 40.1 °F /  4.5 °C 33.5 °F /  0.8 °C 30.07in /  1018.2hPa NNE 12.7mph /  20.4km/h 12.7mph /  20.4km/h 77% 0.18in /  4.57mm WeatherDisplay:10.37 W/m2 RA
12:45 40.0 °F /  4.4 °C 34.0 °F /  1.1 °C 30.07in /  1018.2hPa NNW 11.5mph /  18.5km/h 11.5mph /  18.5km/h 79% 0.18in /  4.57mm WeatherDisplay:10.37 W/m2 RA
12:50 40.1 °F /  4.5 °C 33.5 °F /  0.8 °C 30.07in /  1018.2hPa North 16.1mph /  25.9km/h 16.1mph /  25.9km/h 77% 0.18in /  4.57mm WeatherDisplay:10.37 W/m2 RA
12:55 40.0 °F /  4.4 °C 33.4 °F /  0.8 °C 30.07in /  1018.2hPa NNE 13.8mph /  22.2km/h 13.8mph /  22.2km/h 77% 0.17in /  4.32mm WeatherDisplay:10.37 W/m2 RA
13:00 40.2 °F /  4.6 °C 34.2 °F /  1.2 °C 30.07in /  1018.2hPa North 15.0mph /  24.1km/h 15.0mph /  24.1km/h 79% 0.16in /  4.06mm WeatherDisplay:10.37 W/m2 RA
13:05 40.5 °F /  4.7 °C 33.9 °F /  1.1 °C 30.06in /  1017.8hPa North 15.0mph /  24.1km/h 15.0mph /  24.1km/h 77% 0.16in /  4.06mm WeatherDisplay:10.37 W/m2 RA
13:10 40.4 °F /  4.7 °C 33.8 °F /  1 °C 30.07in /  1018.2hPa NNE 13.8mph /  22.2km/h 13.8mph /  22.2km/h 77% 0.14in /  3.56mm WeatherDisplay:10.37 W/m2 RA
13:15 40.6 °F /  4.8 °C 34.0 °F /  1.1 °C 30.05in /  1017.5hPa NNW 15.0mph /  24.1km/h 15.0mph /  24.1km/h 77% 0.13in /  3.3mm WeatherDisplay:10.37 W/m2 RA
13:20 40.7 °F /  4.8 °C 34.4 °F /  1.3 °C 30.06in /  1017.8hPa North 12.7mph /  20.4km/h 12.7mph /  20.4km/h 78% 0.13in /  3.3mm WeatherDisplay:10.37 W/m2 RA
13:25 40.9 °F /  4.9 °C 34.2 °F /  1.2 °C 30.06in /  1017.8hPa NNE 10.4mph /  16.7km/h 10.4mph /  16.7km/h 77% 0.11in /  2.79mm WeatherDisplay:10.37 W/m2 RA
13:31 41.1 °F /  5.1 °C 34.1 °F /  1.2 °C 30.05in /  1017.5hPa North 15.0mph /  24.1km/h 15.0mph /  24.1km/h 76% 0.11in /  2.79mm WeatherDisplay:10.37 W/m2 RA
13:36 41.4 °F /  5.2 °C 35.4 °F /  1.9 °C 30.05in /  1017.5hPa NNW 8.1mph /  13km/h 8.1mph /  13km/h 79% 0.10in /  2.54mm WeatherDisplay:10.37 W/m2 RA
13:41 41.8 °F /  5.4 °C 34.8 °F /  1.6 °C 30.05in /  1017.5hPa NNE 13.8mph /  22.2km/h 13.8mph /  22.2km/h 76% 0.10in /  2.54mm WeatherDisplay:10.37 W/m2 RA
13:46 42.1 °F /  5.6 °C 34.4 °F /  1.3 °C 30.05in /  1017.5hPa North 19.6mph /  31.5km/h 19.6mph /  31.5km/h 74% 0.08in /  2.03mm WeatherDisplay:10.37 W/m2 RA
13:51 42.3 °F /  5.7 °C 33.9 °F /  1.1 °C 30.05in /  1017.5hPa North 15.0mph /  24.1km/h 15.0mph /  24.1km/h 72% 0.08in /  2.03mm WeatherDisplay:10.37 W/m2 RA
13:56 42.5 °F /  5.8 °C 34.1 °F /  1.2 °C 30.04in /  1017.2hPa North 13.8mph /  22.2km/h 13.8mph /  22.2km/h 72% 0.07in /  1.78mm WeatherDisplay:10.37 W/m2 RA
14:01 42.6 °F /  5.9 °C 33.9 °F /  1.1 °C 30.04in /  1017.2hPa WNW 11.5mph /  18.5km/h 11.5mph /  18.5km/h 71% 0.08in /  2.03mm WeatherDisplay:10.37 W/m2 RA
14:06 42.5 °F /  5.8 °C 33.0 °F /  0.6 °C 30.04in /  1017.2hPa NNE 19.6mph /  31.5km/h 19.6mph /  31.5km/h 69% 0.06in /  1.52mm WeatherDisplay:10.37 W/m2 RA
14:09 42.5 °F /  5.8 °C 33.4 °F /  0.8 °C 30.05in /  1017.5hPa NW 16.1mph /  25.9km/h 16.1mph /  25.9km/h 70% 0.06in /  1.52mm WeatherDisplay:10.37 W/m2 RA
14:14 42.5 °F /  5.8 °C 33.8 °F /  1 °C 30.05in /  1017.5hPa North 11.5mph /  18.5km/h 11.5mph /  18.5km/h 71% 0.06in /  1.52mm WeatherDisplay:10.37 W/m2 CLR
14:19 42.6 °F /  5.9 °C 33.5 °F /  0.8 °C 30.04in /  1017.2hPa NNE 12.7mph /  20.4km/h 12.7mph /  20.4km/h 70% 0.05in /  1.27mm WeatherDisplay:10.37 W/m2 CLR
14:24 42.7 °F /  5.9 °C 33.9 °F /  1.1 °C 30.04in /  1017.2hPa North 12.0mph /  19.3km/h 12.0mph /  19.3km/h 71% 0.04in /  1.02mm WeatherDisplay:10.37 W/m2 CLR
14:29 42.9 °F /  6.1 °C 33.8 °F /  1 °C 30.03in /  1016.8hPa NNW 12.7mph /  20.4km/h 12.7mph /  20.4km/h 70% 0.04in /  1.02mm WeatherDisplay:10.37 W/m2 CLR
14:34 42.7 °F /  5.9 °C 33.2 °F /  0.7 °C 30.03in /  1016.8hPa NNW 15.0mph /  24.1km/h 15.0mph /  24.1km/h 69% 0.03in /  0.76mm WeatherDisplay:10.37 W/m2 CLR
14:35 42.7 °F /  5.9 °C 33.2 °F /  0.7 °C 30.03in /  1016.8hPa North 15.0mph /  24.1km/h 15.0mph /  24.1km/h 69% 0.03in /  0.76mm WeatherDisplay:10.37 W/m2 CLR
14:40 42.5 °F /  5.8 °C 33.4 °F /  0.8 °C 30.04in /  1017.2hPa North 12.7mph /  20.4km/h 12.7mph /  20.4km/h 70% 0.02in /  0.51mm WeatherDisplay:10.37 W/m2 CLR
14:45 42.6 °F /  5.9 °C 33.5 °F /  0.8 °C 30.04in /  1017.2hPa North 12.7mph /  20.4km/h 12.7mph /  20.4km/h 70% 0.02in /  0.51mm WeatherDisplay:10.37 W/m2 CLR
14:50 42.5 °F /  5.8 °C 33.4 °F /  0.8 °C 30.04in /  1017.2hPa North 18.4mph /  29.6km/h 18.4mph /  29.6km/h 70% 0.01in /  0.25mm WeatherDisplay:10.37 W/m2 CLR
14:55 42.4 °F /  5.8 °C 33.3 °F /  0.7 °C 30.06in /  1017.8hPa North 15.0mph /  24.1km/h 15.0mph /  24.1km/h 70% 0.01in /  0.25mm WeatherDisplay:10.37 W/m2 CLR
15:00 42.3 °F /  5.7 °C 33.2 °F /  0.7 °C 30.06in /  1017.8hPa North 17.3mph /  27.8km/h 17.3mph /  27.8km/h 70% 0.01in /  0.25mm WeatherDisplay:10.37 W/m2 CLR
15:05 42.4 °F /  5.8 °C 33.7 °F /  0.9 °C 30.06in /  1017.8hPa North 12.0mph /  19.3km/h 12.0mph /  19.3km/h 71% 0.00in /  0mm WeatherDisplay:10.37 W/m2 CLR
15:10 42.4 °F /  5.8 °C 33.7 °F /  0.9 °C 30.06in /  1017.8hPa NNW 12.0mph /  19.3km/h 12.0mph /  19.3km/h 71% 0.00in /  0mm WeatherDisplay:10.37 W/m2 CLR
15:15 42.3 °F /  5.7 °C 33.2 °F /  0.7 °C 30.06in /  1017.8hPa NNE 16.1mph /  25.9km/h 16.1mph /  25.9km/h 70% 0.00in /  0mm WeatherDisplay:10.37 W/m2 CLR
15:20 42.2 °F /  5.7 °C 33.1 °F /  0.6 °C 30.06in /  1017.8hPa North 16.1mph /  25.9km/h 16.1mph /  25.9km/h 70% 0.00in /  0mm WeatherDisplay:10.37 W/m2 CLR
15:25 42.2 °F /  5.7 °C 32.8 °F /  0.4 °C 30.06in /  1017.8hPa NNW 18.4mph /  29.6km/h 18.4mph /  29.6km/h 69% 0.00in /  0mm WeatherDisplay:10.37 W/m2 CLR
15:30 42.2 °F /  5.7 °C 33.1 °F /  0.6 °C 30.06in /  1017.8hPa North 13.8mph /  22.2km/h 13.8mph /  22.2km/h 70% 0.00in /  0mm WeatherDisplay:10.37 W/m2 CLR
15:35 42.3 °F /  5.7 °C 33.6 °F /  0.9 °C 30.06in /  1017.8hPa NW 11.5mph /  18.5km/h 11.5mph /  18.5km/h 71% 0.00in /  0mm WeatherDisplay:10.37 W/m2 CLR
15:40 42.2 °F /  5.7 °C 33.5 °F /  0.8 °C 30.06in /  1017.8hPa North 13.8mph /  22.2km/h 13.8mph /  22.2km/h 71% 0.00in /  0mm WeatherDisplay:10.37 W/m2 CLR
15:45 42.2 °F /  5.7 °C 33.1 °F /  0.6 °C 30.06in /  1017.8hPa NNE 13.0mph /  20.9km/h 13.0mph /  20.9km/h 70% 0.00in /  0mm WeatherDisplay:10.37 W/m2 CLR
15:50 42.1 °F /  5.6 °C 33.4 °F /  0.8 °C 30.06in /  1017.8hPa North 13.8mph /  22.2km/h 13.8mph /  22.2km/h 71% 0.00in /  0mm WeatherDisplay:10.37 W/m2 CLR
15:55 42.2 °F /  5.7 °C 33.5 °F /  0.8 °C 30.06in /  1017.8hPa North 10.0mph /  16.1km/h 10.0mph /  16.1km/h 71% 0.00in /  0mm WeatherDisplay:10.37 W/m2 CLR
16:00 42.2 °F /  5.7 °C 33.5 °F /  0.8 °C 30.06in /  1017.8hPa North 10.4mph /  16.7km/h 10.4mph /  16.7km/h 71% 0.00in /  0mm WeatherDisplay:10.37 W/m2 CLR
16:05 42.3 °F /  5.7 °C 33.2 °F /  0.7 °C 30.06in /  1017.8hPa North 10.4mph /  16.7km/h 10.4mph /  16.7km/h 70% 0.00in /  0mm WeatherDisplay:10.37 W/m2 CLR
16:10 42.1 °F /  5.6 °C 33.4 °F /  0.8 °C 30.06in /  1017.8hPa North 11.5mph /  18.5km/h 11.5mph /  18.5km/h 71% 0.00in /  0mm WeatherDisplay:10.37 W/m2 CLR
16:15 42.1 °F /  5.6 °C 33.7 °F /  0.9 °C 30.07in /  1018.2hPa NNW 9.2mph /  14.8km/h 9.2mph /  14.8km/h 72% 0.00in /  0mm WeatherDisplay:10.37 W/m2 CLR
16:20 42.2 °F /  5.7 °C 33.5 °F /  0.8 °C 30.07in /  1018.2hPa North 11.5mph /  18.5km/h 11.5mph /  18.5km/h 71% 0.00in /  0mm WeatherDisplay:10.37 W/m2 CLR
16:25 42.2 °F /  5.7 °C 33.5 °F /  0.8 °C 30.07in /  1018.2hPa North 6.0mph /  9.7km/h 6.0mph /  9.7km/h 71% 0.00in /  0mm WeatherDisplay:10.37 W/m2 CLR
16:30 42.2 °F /  5.7 °C 33.8 °F /  1 °C 30.07in /  1018.2hPa NNE 7.0mph /  11.3km/h 7.0mph /  11.3km/h 72% 0.00in /  0mm WeatherDisplay:10.37 W/m2 CLR
16:35 42.3 °F /  5.7 °C 33.6 °F /  0.9 °C 30.08in /  1018.5hPa North 15.0mph /  24.1km/h 15.0mph /  24.1km/h 71% 0.00in /  0mm WeatherDisplay:10.37 W/m2 CLR
16:40 42.2 °F /  5.7 °C 33.5 °F /  0.8 °C 30.08in /  1018.5hPa North 13.8mph /  22.2km/h 13.8mph /  22.2km/h 71% 0.00in /  0mm WeatherDisplay:10.37 W/m2 CLR
16:45 42.4 °F /  5.8 °C 33.7 °F /  0.9 °C 30.08in /  1018.5hPa North 13.8mph /  22.2km/h 13.8mph /  22.2km/h 71% 0.00in /  0mm WeatherDisplay:10.37 W/m2 CLR
16:50 42.5 °F /  5.8 °C 33.8 °F /  1 °C 30.07in /  1018.2hPa NNE 10.4mph /  16.7km/h 10.4mph /  16.7km/h 71% 0.00in /  0mm WeatherDisplay:10.37 W/m2 CLR
16:55 42.7 °F /  5.9 °C 33.9 °F /  1.1 °C 30.07in /  1018.2hPa NNE 6.9mph /  11.1km/h 6.9mph /  11.1km/h 71% 0.00in /  0mm WeatherDisplay:10.37 W/m2 CLR
17:00 42.7 °F /  5.9 °C 33.9 °F /  1.1 °C 30.07in /  1018.2hPa North 9.2mph /  14.8km/h 9.2mph /  14.8km/h 71% 0.00in /  0mm WeatherDisplay:10.37 W/m2 CLR
17:01 42.7 °F /  5.9 °C 33.9 °F /  1.1 °C 30.07in /  1018.2hPa North 9.2mph /  14.8km/h 9.2mph /  14.8km/h 71% 0.00in /  0mm WeatherDisplay:10.37 W/m2 CLR
17:06 42.6 °F /  5.9 °C 33.9 °F /  1.1 °C 30.08in /  1018.5hPa NNW 8.0mph /  12.9km/h 8.0mph /  12.9km/h 71% 0.00in /  0mm WeatherDisplay:10.37 W/m2 CLR
17:11 42.5 °F /  5.8 °C 33.8 °F /  1 °C 30.09in /  1018.8hPa NW 6.9mph /  11.1km/h 6.9mph /  11.1km/h 71% 0.00in /  0mm WeatherDisplay:10.37 W/m2 CLR
17:16 42.4 °F /  5.8 °C 33.7 °F /  0.9 °C 30.09in /  1018.8hPa NW 10.4mph /  16.7km/h 10.4mph /  16.7km/h 71% 0.00in /  0mm WeatherDisplay:10.37 W/m2 CLR
17:21 42.3 °F /  5.7 °C 33.6 °F /  0.9 °C 30.09in /  1018.8hPa NNW 9.2mph /  14.8km/h 9.2mph /  14.8km/h 71% 0.00in /  0mm WeatherDisplay:10.37 W/m2 CLR
17:26 42.3 °F /  5.7 °C 33.6 °F /  0.9 °C 30.09in /  1018.8hPa NNE 9.2mph /  14.8km/h 9.2mph /  14.8km/h 71% 0.00in /  0mm WeatherDisplay:10.37 W/m2 CLR
17:31 42.3 °F /  5.7 °C 33.6 °F /  0.9 °C 30.09in /  1018.8hPa NW 10.4mph /  16.7km/h 10.4mph /  16.7km/h 71% 0.00in /  0mm WeatherDisplay:10.37 W/m2 CLR
17:36 42.2 °F /  5.7 °C 33.5 °F /  0.8 °C 30.09in /  1018.8hPa North 11.5mph /  18.5km/h 11.5mph /  18.5km/h 71% 0.00in /  0mm WeatherDisplay:10.37 W/m2 CLR
17:41 42.2 °F /  5.7 °C 33.5 °F /  0.8 °C 30.09in /  1018.8hPa North 11.0mph /  17.7km/h 11.0mph /  17.7km/h 71% 0.00in /  0mm WeatherDisplay:10.37 W/m2 CLR
17:46 42.1 °F /  5.6 °C 33.7 °F /  0.9 °C 30.09in /  1018.8hPa North 4.6mph /  7.4km/h 5.2mph /  8.4km/h 72% 0.00in /  0mm WeatherDisplay:10.37 W/m2 CLR
17:51 42.2 °F /  5.7 °C 33.5 °F /  0.8 °C 30.09in /  1018.8hPa North 4.6mph /  7.4km/h 4.6mph /  7.4km/h 71% 0.00in /  0mm WeatherDisplay:10.37 W/m2 CLR
17:56 42.2 °F /  5.7 °C 33.5 °F /  0.8 °C 30.09in /  1018.8hPa North 5.8mph /  9.3km/h 5.8mph /  9.3km/h 71% 0.00in /  0mm WeatherDisplay:10.37 W/m2 CLR
18:01 42.2 °F /  5.7 °C 33.1 °F /  0.6 °C 30.09in /  1018.8hPa NNW 11.5mph /  18.5km/h 11.5mph /  18.5km/h 70% 0.00in /  0mm WeatherDisplay:10.37 W/m2 CLR
18:06 42.1 °F /  5.6 °C 33.4 °F /  0.8 °C 30.09in /  1018.8hPa North 9.2mph /  14.8km/h 9.2mph /  14.8km/h 71% 0.00in /  0mm WeatherDisplay:10.37 W/m2 CLR
18:11 42.2 °F /  5.7 °C 33.8 °F /  1 °C 30.10in /  1019.2hPa North 2.3mph /  3.7km/h 2.3mph /  3.7km/h 72% 0.00in /  0mm WeatherDisplay:10.37 W/m2 CLR
18:16 42.2 °F /  5.7 °C 33.1 °F /  0.6 °C 30.10in /  1019.2hPa North 8.1mph /  13km/h 8.1mph /  13km/h 70% 0.00in /  0mm WeatherDisplay:10.37 W/m2 CLR
18:21 42.2 °F /  5.7 °C 33.8 °F /  1 °C 30.09in /  1018.8hPa NNE 6.0mph /  9.7km/h 6.0mph /  9.7km/h 72% 0.00in /  0mm WeatherDisplay:10.37 W/m2 CLR
18:26 42.1 °F /  5.6 °C 33.4 °F /  0.8 °C 30.09in /  1018.8hPa NNW 11.5mph /  18.5km/h 11.5mph /  18.5km/h 71% 0.00in /  0mm WeatherDisplay:10.37 W/m2 CLR
18:28 42.0 °F /  5.6 °C 33.3 °F /  0.7 °C 30.09in /  1018.8hPa NNE 6.9mph /  11.1km/h 6.9mph /  11.1km/h 71% 0.00in /  0mm WeatherDisplay:10.37 W/m2 CLR
18:33 41.9 °F /  5.5 °C 33.2 °F /  0.7 °C 30.09in /  1018.8hPa North 4.6mph /  7.4km/h 4.6mph /  7.4km/h 71% 0.00in /  0mm WeatherDisplay:10.37 W/m2 CLR
18:38 41.9 °F /  5.5 °C 33.2 °F /  0.7 °C 30.09in /  1018.8hPa NNW 5.8mph /  9.3km/h 5.8mph /  9.3km/h 71% 0.00in /  0mm WeatherDisplay:10.37 W/m2 CLR
18:43 41.9 °F /  5.5 °C 33.5 °F /  0.8 °C 30.09in /  1018.8hPa NNE 4.6mph /  7.4km/h 4.6mph /  7.4km/h 72% 0.00in /  0mm WeatherDisplay:10.37 W/m2 CLR
18:48 41.9 °F /  5.5 °C 33.9 °F /  1.1 °C 30.09in /  1018.8hPa NNW 3.0mph /  4.8km/h 3.0mph /  4.8km/h 73% 0.00in /  0mm WeatherDisplay:10.37 W/m2 CLR
18:53 41.8 °F /  5.4 °C 33.4 °F /  0.8 °C 30.10in /  1019.2hPa North 3.5mph /  5.6km/h 3.5mph /  5.6km/h 72% 0.00in /  0mm WeatherDisplay:10.37 W/m2 CLR
18:58 41.9 °F /  5.5 °C 33.9 °F /  1.1 °C 30.10in /  1019.2hPa NNW 3.5mph /  5.6km/h 3.5mph /  5.6km/h 73% 0.00in /  0mm WeatherDisplay:10.37 W/m2 CLR
19:03 41.9 °F /  5.5 °C 33.5 °F /  0.8 °C 30.10in /  1019.2hPa NNE 5.8mph /  9.3km/h 5.8mph /  9.3km/h 72% 0.00in /  0mm WeatherDisplay:10.37 W/m2 CLR
19:08 42.0 °F /  5.6 °C 34.0 °F /  1.1 °C 30.10in /  1019.2hPa NW 4.6mph /  7.4km/h 4.6mph /  7.4km/h 73% 0.00in /  0mm WeatherDisplay:10.37 W/m2 CLR
19:13 42.0 °F /  5.6 °C 33.3 °F /  0.7 °C 30.10in /  1019.2hPa North 11.5mph /  18.5km/h 11.5mph /  18.5km/h 71% 0.00in /  0mm WeatherDisplay:10.37 W/m2 CLR
19:18 41.9 °F /  5.5 °C 33.5 °F /  0.8 °C 30.10in /  1019.2hPa NNW 3.5mph /  5.6km/h 3.5mph /  5.6km/h 72% 0.00in /  0mm WeatherDisplay:10.37 W/m2 CLR
19:23 41.9 °F /  5.5 °C 33.5 °F /  0.8 °C 30.10in /  1019.2hPa NNE 6.9mph /  11.1km/h 6.9mph /  11.1km/h 72% 0.00in /  0mm WeatherDisplay:10.37 W/m2 CLR
19:28 41.8 °F /  5.4 °C 33.1 °F /  0.6 °C 30.10in /  1019.2hPa North 11.5mph /  18.5km/h 11.5mph /  18.5km/h 71% 0.00in /  0mm WeatherDisplay:10.37 W/m2 CLR
19:33 41.7 °F /  5.4 °C 33.3 °F /  0.7 °C 30.10in /  1019.2hPa North 4.6mph /  7.4km/h 4.6mph /  7.4km/h 72% 0.00in /  0mm WeatherDisplay:10.37 W/m2 CLR
19:38 41.7 °F /  5.4 °C 33.3 °F /  0.7 °C 30.10in /  1019.2hPa NNW 5.8mph /  9.3km/h 5.8mph /  9.3km/h 72% 0.00in /  0mm WeatherDisplay:10.37 W/m2 CLR
19:43 41.5 °F /  5.3 °C 33.1 °F /  0.6 °C 30.10in /  1019.2hPa North 12.7mph /  20.4km/h 12.7mph /  20.4km/h 72% 0.00in /  0mm WeatherDisplay:10.37 W/m2 CLR
19:48 41.4 °F /  5.2 °C 33.0 °F /  0.6 °C 30.10in /  1019.2hPa NNE 6.9mph /  11.1km/h 6.9mph /  11.1km/h 72% 0.00in /  0mm WeatherDisplay:10.37 W/m2 CLR
19:53 41.3 °F /  5.2 °C 33.3 °F /  0.7 °C 30.10in /  1019.2hPa North 11.5mph /  18.5km/h 11.5mph /  18.5km/h 73% 0.00in /  0mm WeatherDisplay:10.37 W/m2 CLR
19:58 41.2 °F /  5.1 °C 33.2 °F /  0.7 °C 30.11in /  1019.5hPa North 9.2mph /  14.8km/h 9.2mph /  14.8km/h 73% 0.00in /  0mm WeatherDisplay:10.37 W/m2 CLR
20:03 41.0 °F /  5 °C 33.0 °F /  0.6 °C 30.11in /  1019.5hPa North 4.6mph /  7.4km/h 4.6mph /  7.4km/h 73% 0.00in /  0mm WeatherDisplay:10.37 W/m2 CLR
20:08 40.8 °F /  4.9 °C 32.8 °F /  0.4 °C 30.11in /  1019.5hPa North 13.8mph /  22.2km/h 13.8mph /  22.2km/h 73% 0.00in /  0mm WeatherDisplay:10.37 W/m2 CLR
20:13 40.7 °F /  4.8 °C 33.1 °F /  0.6 °C 30.11in /  1019.5hPa North 5.0mph /  8km/h 5.0mph /  8km/h 74% 0.00in /  0mm WeatherDisplay:10.37 W/m2 CLR
20:18 40.5 °F /  4.7 °C 33.2 °F /  0.7 °C 30.11in /  1019.5hPa North 9.0mph /  14.5km/h 9.0mph /  14.5km/h 75% 0.00in /  0mm WeatherDisplay:10.37 W/m2 CLR
20:23 40.5 °F /  4.7 °C 33.2 °F /  0.7 °C 30.11in /  1019.5hPa NNW 2.0mph /  3.2km/h 2.0mph /  3.2km/h 75% 0.00in /  0mm WeatherDisplay:10.37 W/m2 CLR
20:28 40.4 °F /  4.7 °C 33.4 °F /  0.8 °C 30.11in /  1019.5hPa North 1.2mph /  1.9km/h   76% 0.00in /  0mm WeatherDisplay:10.37 W/m2 CLR
20:33 40.3 °F /  4.6 °C 33.0 °F /  0.6 °C 30.11in /  1019.5hPa NNW 3.5mph /  5.6km/h 3.5mph /  5.6km/h 75% 0.00in /  0mm WeatherDisplay:10.37 W/m2 CLR
20:38 40.2 °F /  4.6 °C 33.2 °F /  0.7 °C 30.11in /  1019.5hPa NNW 3.5mph /  5.6km/h 3.5mph /  5.6km/h 76% 0.00in /  0mm WeatherDisplay:10.37 W/m2 CLR
20:43 40.2 °F /  4.6 °C 32.9 °F /  0.5 °C 30.11in /  1019.5hPa NNW 3.5mph /  5.6km/h 3.5mph /  5.6km/h 75% 0.00in /  0mm WeatherDisplay:10.37 W/m2 CLR
20:48 40.2 °F /  4.6 °C 33.2 °F /  0.7 °C 30.11in /  1019.5hPa Calm     76% 0.00in /  0mm WeatherDisplay:10.37 W/m2 CLR
20:53 40.1 °F /  4.5 °C 33.5 °F /  0.8 °C 30.11in /  1019.5hPa North 2.3mph /  3.7km/h 2.3mph /  3.7km/h 77% 0.00in /  0mm WeatherDisplay:10.37 W/m2 CLR
20:58 40.1 °F /  4.5 °C 32.8 °F /  0.4 °C 30.12in /  1019.9hPa North 4.6mph /  7.4km/h 4.6mph /  7.4km/h 75% 0.00in /  0mm WeatherDisplay:10.37 W/m2 CLR
21:03 40.2 °F /  4.6 °C 32.9 °F /  0.5 °C 30.12in /  1019.9hPa North 2.3mph /  3.7km/h 2.3mph /  3.7km/h 75% 0.00in /  0mm WeatherDisplay:10.37 W/m2 CLR
21:08 40.2 °F /  4.6 °C 32.6 °F /  0.3 °C 30.12in /  1019.9hPa North 4.6mph /  7.4km/h 4.6mph /  7.4km/h 74% 0.00in /  0mm WeatherDisplay:10.37 W/m2 CLR
21:13 40.2 °F /  4.6 °C 32.6 °F /  0.3 °C 30.12in /  1019.9hPa North 3.5mph /  5.6km/h 3.5mph /  5.6km/h 74% 0.00in /  0mm WeatherDisplay:10.37 W/m2 CLR
21:18 40.2 °F /  4.6 °C 32.9 °F /  0.5 °C 30.12in /  1019.9hPa North 3.5mph /  5.6km/h 3.5mph /  5.6km/h 75% 0.00in /  0mm WeatherDisplay:10.37 W/m2 CLR
21:23 40.2 °F /  4.6 °C 32.9 °F /  0.5 °C 30.12in /  1019.9hPa NNE 3.5mph /  5.6km/h   75% 0.00in /  0mm WeatherDisplay:10.37 W/m2 CLR
21:28 40.2 °F /  4.6 °C 32.9 °F /  0.5 °C 30.12in /  1019.9hPa NNE 2.3mph /  3.7km/h 2.3mph /  3.7km/h 75% 0.00in /  0mm WeatherDisplay:10.37 W/m2 CLR
21:33 40.2 °F /  4.6 °C 33.2 °F /  0.7 °C 30.12in /  1019.9hPa NNE 1.0mph /  1.6km/h 1.0mph /  1.6km/h 76% 0.00in /  0mm WeatherDisplay:10.37 W/m2 CLR
21:38 40.2 °F /  4.6 °C 33.2 °F /  0.7 °C 30.13in /  1020.2hPa Calm     76% 0.00in /  0mm WeatherDisplay:10.37 W/m2 CLR
21:43 40.2 °F /  4.6 °C 32.9 °F /  0.5 °C 30.13in /  1020.2hPa North 2.3mph /  3.7km/h 2.3mph /  3.7km/h 75% 0.00in /  0mm WeatherDisplay:10.37 W/m2 CLR
21:48 40.2 °F /  4.6 °C 32.6 °F /  0.3 °C 30.13in /  1020.2hPa NNE 5.8mph /  9.3km/h 5.8mph /  9.3km/h 74% 0.00in /  0mm WeatherDisplay:10.37 W/m2 CLR
21:53 40.2 °F /  4.6 °C 32.6 °F /  0.3 °C 30.13in /  1020.2hPa North 3.5mph /  5.6km/h 3.5mph /  5.6km/h 74% 0.00in /  0mm WeatherDisplay:10.37 W/m2 CLR
21:58 40.2 °F /  4.6 °C 32.6 °F /  0.3 °C 30.13in /  1020.2hPa North 4.6mph /  7.4km/h 4.6mph /  7.4km/h 74% 0.00in /  0mm WeatherDisplay:10.37 W/m2 CLR
22:03 40.2 °F /  4.6 °C 32.6 °F /  0.3 °C 30.10in /  1019.2hPa North 4.6mph /  7.4km/h 4.6mph /  7.4km/h 74% 0.00in /  0mm WeatherDisplay:10.37 W/m2 CLR
22:08 40.2 °F /  4.6 °C 32.9 °F /  0.5 °C 30.11in /  1019.5hPa NNW 3.5mph /  5.6km/h 3.5mph /  5.6km/h 75% 0.00in /  0mm WeatherDisplay:10.37 W/m2 CLR
22:13 40.2 °F /  4.6 °C 32.6 °F /  0.3 °C 30.10in /  1019.2hPa North 8.1mph /  13km/h 8.1mph /  13km/h 74% 0.00in /  0mm WeatherDisplay:10.37 W/m2 CLR
22:18 40.3 °F /  4.6 °C 32.7 °F /  0.4 °C 30.10in /  1019.2hPa North 5.8mph /  9.3km/h 5.8mph /  9.3km/h 74% 0.00in /  0mm WeatherDisplay:10.37 W/m2 CLR
22:23 40.2 °F /  4.6 °C 32.6 °F /  0.3 °C 30.10in /  1019.2hPa NNW 3.5mph /  5.6km/h 3.5mph /  5.6km/h 74% 0.00in /  0mm WeatherDisplay:10.37 W/m2 CLR
22:28 40.2 °F /  4.6 °C 32.6 °F /  0.3 °C 30.10in /  1019.2hPa NNW 4.6mph /  7.4km/h 4.6mph /  7.4km/h 74% 0.00in /  0mm WeatherDisplay:10.37 W/m2 CLR
22:33 40.2 °F /  4.6 °C 32.9 °F /  0.5 °C 30.10in /  1019.2hPa North 3.5mph /  5.6km/h 3.5mph /  5.6km/h 75% 0.00in /  0mm WeatherDisplay:10.37 W/m2 CLR
22:38 40.3 °F /  4.6 °C 33.3 °F /  0.7 °C 30.10in /  1019.2hPa Calm     76% 0.00in /  0mm WeatherDisplay:10.37 W/m2 CLR
22:43 40.2 °F /  4.6 °C 33.6 °F /  0.9 °C 30.10in /  1019.2hPa Calm     77% 0.00in /  0mm WeatherDisplay:10.37 W/m2 CLR
22:48 40.1 °F /  4.5 °C 33.5 °F /  0.8 °C 30.10in /  1019.2hPa Calm     77% 0.00in /  0mm WeatherDisplay:10.37 W/m2 CLR
22:53 40.0 °F /  4.4 °C 33.4 °F /  0.8 °C 30.10in /  1019.2hPa Calm     77% 0.00in /  0mm WeatherDisplay:10.37 W/m2 CLR
22:58 39.9 °F /  4.4 °C 33.3 °F /  0.7 °C 30.10in /  1019.2hPa North 3.5mph /  5.6km/h 3.5mph /  5.6km/h 77% 0.00in /  0mm WeatherDisplay:10.37 W/m2 CLR
23:03 39.8 °F /  4.3 °C 32.8 °F /  0.4 °C 30.10in /  1019.2hPa North 3.5mph /  5.6km/h 3.5mph /  5.6km/h 76% 0.00in /  0mm WeatherDisplay:10.37 W/m2 CLR
23:08 39.8 °F /  4.3 °C 33.2 °F /  0.7 °C 30.09in /  1018.8hPa Calm   0.2mph /  0.3km/h 77% 0.00in /  0mm WeatherDisplay:10.37 W/m2 CLR
23:13 39.8 °F /  4.3 °C 33.2 °F /  0.7 °C 30.09in /  1018.8hPa Calm     77% 0.00in /  0mm WeatherDisplay:10.37 W/m2 CLR
23:18 39.7 °F /  4.3 °C 33.1 °F /  0.6 °C 30.09in /  1018.8hPa North 1.2mph /  1.9km/h   77% 0.00in /  0mm WeatherDisplay:10.37 W/m2 CLR
23:23 39.7 °F /  4.3 °C 33.1 °F /  0.6 °C 30.09in /  1018.8hPa Calm     77% 0.00in /  0mm WeatherDisplay:10.37 W/m2 CLR
23:28 39.7 °F /  4.3 °C 33.1 °F /  0.6 °C 30.09in /  1018.8hPa Calm     77% 0.00in /  0mm WeatherDisplay:10.37 W/m2 CLR
23:33 39.7 °F /  4.3 °C 33.4 °F /  0.8 °C 30.08in /  1018.5hPa Calm     78% 0.00in /  0mm WeatherDisplay:10.37 W/m2 CLR
23:38 39.7 °F /  4.3 °C 33.4 °F /  0.8 °C 30.08in /  1018.5hPa Calm     78% 0.00in /  0mm WeatherDisplay:10.37 W/m2 CLR
23:43 39.6 °F /  4.2 °C 33.3 °F /  0.7 °C 30.08in /  1018.5hPa Calm     78% 0.00in /  0mm WeatherDisplay:10.37 W/m2 CLR
23:48 39.6 °F /  4.2 °C 33.3 °F /  0.7 °C 30.08in /  1018.5hPa Calm     78% 0.00in /  0mm WeatherDisplay:10.37 W/m2 CLR
23:53 39.5 °F /  4.2 °C 33.2 °F /  0.7 °C 30.08in /  1018.5hPa Calm     78% 0.00in /  0mm WeatherDisplay:10.37 W/m2 CLR
23:58 39.4 °F /  4.1 °C 33.4 °F /  0.8 °C 30.08in /  1018.5hPa Calm     79% 0.00in /  0mm WeatherDisplay:10.37 W/m2 CLR
Windsor Co Weather
Compliments of Weather Underground - 3 mb